KALB/ALB METAR and TAF weather

Enter ICAO airport designator
Station Type Date Time Source
KALB METAR 2021/04/18 02:51 UTC NOAA

KALB 180251Z 00000KT 10SM OVC070 04/03 A2982 RMK AO2 SLP099 T00390033 51008 $


Station Type Date Time Source
KALB Decoded METAR 2021/04/18 02:51 UTC NOAA

ALBANY INTERNATIONAL AIRPORT, NY, United States (KALB) 42-45N 73-48W
Apr 17, 2021 - 10:51 PM EDT / 2021.04.18 0251 UTC
Wind: Calm:0
Visibility: 10 mile(s):0
Sky conditions: overcast
Temperature: 39.0 F (3.9 C)
Dew Point: 37.9 F (3.3 C)
Relative Humidity: 95%
Pressure (altimeter): 29.82 in. Hg (1009 hPa)
Pressure tendency: 0.02 inches (0.8 hPa) higher than three hours ago
ob: KALB 180251Z 00000KT 10SM OVC070 04/03 A2982 RMK AO2 SLP099 T00390033 51008
cycle: 3

Station Type Date Time Source
KALB TAF 2021/04/17 18:33 UTC NOAA

TAF KALB 171730Z 1718/1818 35006KT P6SM VCSH SCT025 BKN040
TEMPO 1718/1722 5SM -SHRA BR BKN025 OVC035
FM180400 VRB03KT P6SM BKN035
FM181000 VRB03KT P6SM BKN030
FM181600 30006KT P6SM BKN040

Example: see airport list